createdAt,value
2019-02-21T00:00:03.585Z,23.59
2019-02-21T00:01:03.573Z,23.62
2019-02-21T00:02:03.574Z,23.58
2019-02-21T00:03:03.542Z,23.61
2019-02-21T00:04:03.533Z,23.61
2019-02-21T00:05:03.525Z,23.55
2019-02-21T00:06:03.512Z,23.51
2019-02-21T00:07:03.517Z,23.59
2019-02-21T00:08:03.489Z,23.58
2019-02-21T00:09:03.485Z,23.56
2019-02-21T00:10:03.477Z,23.56
2019-02-21T00:11:03.485Z,23.56
2019-02-21T00:12:03.445Z,23.59
2019-02-21T00:13:03.452Z,23.59
2019-02-21T00:14:03.425Z,23.59
2019-02-21T00:15:03.416Z,23.62
2019-02-21T00:16:03.405Z,23.58
2019-02-21T00:17:03.408Z,23.61
2019-02-21T00:18:03.385Z,23.65
2019-02-21T00:19:03.388Z,23.58
2019-02-21T00:20:03.365Z,23.55
2019-02-21T00:21:03.353Z,23.50
2019-02-21T00:22:03.341Z,23.43
2019-02-21T00:23:03.330Z,23.44
2019-02-21T00:24:03.325Z,23.39
2019-02-21T00:25:03.317Z,23.34
2019-02-21T00:26:03.297Z,23.34
2019-02-21T00:27:03.288Z,23.37
2019-02-21T00:28:03.282Z,23.25
2019-02-21T00:29:03.266Z,23.31
2019-02-21T00:30:03.258Z,23.25
2019-02-21T00:31:03.249Z,23.20
2019-02-21T11:48:30.701Z,21.75
2019-02-21T11:49:30.670Z,21.70
2019-02-21T11:51:01.138Z,21.72
2019-02-21T11:52:09.843Z,21.73
2019-02-21T11:53:32.607Z,21.73
2019-02-21T11:54:32.587Z,21.69
2019-02-21T11:56:03.046Z,21.72
2019-02-21T11:57:03.066Z,21.73
2019-02-21T11:58:33.522Z,21.73
2019-02-21T11:59:33.494Z,21.75
2019-02-21T12:01:03.960Z,21.77
2019-02-21T12:02:03.950Z,21.76
2019-02-21T12:03:34.424Z,21.75
2019-02-21T12:04:34.403Z,21.79
2019-02-21T12:06:04.872Z,21.77
2019-02-21T12:07:04.865Z,21.73
2019-02-21T12:08:39.527Z,21.79
2019-02-21T12:09:39.503Z,21.77
2019-02-21T12:11:09.980Z,21.80
2019-02-21T12:12:10.546Z,21.82
2019-02-21T12:13:40.436Z,21.77
2019-02-21T12:14:40.442Z,21.83
2019-02-21T12:16:10.901Z,21.79
2019-02-21T12:17:10.877Z,21.80
2019-02-21T12:18:41.375Z,21.82
2019-02-21T12:19:41.347Z,21.77
2019-02-21T12:21:11.806Z,21.79
2019-02-21T12:22:11.792Z,21.76
2019-02-21T12:23:11.789Z,21.79
2019-02-21T12:24:11.762Z,21.73
2019-02-21T12:25:11.754Z,21.73
2019-02-21T12:26:11.740Z,21.73
2019-02-21T12:27:11.732Z,21.69
2019-02-21T12:28:11.720Z,21.76
2019-02-21T12:29:11.715Z,21.72
2019-02-21T12:30:11.704Z,21.69
2019-02-21T12:31:11.686Z,21.76
2019-02-21T12:32:11.676Z,21.73
2019-02-21T12:33:11.666Z,21.67
2019-02-21T12:34:11.662Z,21.69
2019-02-21T12:35:11.656Z,21.77
2019-02-21T12:36:11.639Z,21.75
2019-02-21T12:37:11.620Z,21.70
2019-02-21T12:38:11.630Z,21.73
2019-02-21T12:39:11.598Z,21.66
2019-02-21T12:40:11.600Z,21.72
2019-02-21T12:41:11.578Z,21.67
2019-02-21T12:42:11.575Z,21.69
2019-02-21T12:43:11.560Z,21.69
2019-02-21T12:44:11.557Z,21.66
2019-02-21T12:45:11.534Z,21.61
2019-02-21T12:46:11.531Z,21.72
2019-02-21T12:47:11.513Z,21.70
2019-02-21T12:48:11.498Z,21.58
2019-02-21T12:49:11.491Z,21.67
2019-02-21T12:50:11.483Z,21.66
2019-02-21T12:51:11.468Z,21.58
2019-02-21T12:52:11.457Z,21.69
2019-02-21T12:53:11.444Z,21.62
2019-02-21T12:54:11.433Z,21.60
2019-02-21T12:55:11.430Z,21.61
2019-02-21T12:56:11.417Z,21.62
2019-02-21T12:57:11.409Z,21.64
2019-02-21T12:58:11.395Z,21.64
2019-02-21T12:59:11.380Z,21.62
2019-02-21T13:00:11.372Z,21.62
2019-02-21T13:01:11.363Z,21.64
2019-02-21T13:02:11.356Z,21.61
2019-02-21T13:03:11.345Z,21.60
2019-02-21T13:04:11.334Z,21.61
2019-02-21T13:05:11.321Z,21.60
2019-02-21T13:06:11.318Z,21.55
2019-02-21T13:07:11.301Z,21.62
2019-02-21T13:08:11.293Z,21.57
2019-02-21T13:09:11.284Z,21.51
2019-02-21T13:10:11.263Z,21.48
2019-02-21T13:11:11.248Z,21.57
2019-02-21T13:12:11.241Z,21.55
2019-02-21T13:13:11.240Z,21.52
2019-02-21T13:14:11.224Z,21.52
2019-02-21T13:15:11.209Z,21.48
2019-02-21T13:16:11.200Z,21.60
2019-02-21T13:17:11.185Z,21.45
2019-02-21T13:18:15.825Z,21.48
2019-02-21T13:19:12.171Z,21.60
2019-02-21T13:20:11.168Z,21.58
2019-02-21T13:21:11.144Z,21.48
2019-02-21T13:22:11.185Z,21.51
2019-02-21T13:23:11.119Z,21.61
2019-02-21T13:24:11.124Z,21.51
2019-02-21T13:25:11.942Z,21.43
2019-02-21T13:26:11.099Z,21.42
2019-02-21T13:27:11.080Z,21.51
2019-02-21T13:28:11.070Z,21.48
2019-02-21T13:29:11.056Z,21.48
2019-02-21T13:30:11.050Z,21.48
2019-02-21T13:31:11.042Z,21.42
2019-02-21T13:32:11.027Z,21.40
2019-02-21T13:33:11.015Z,21.54
2019-02-21T13:34:11.002Z,21.48
2019-02-21T13:35:10.995Z,21.51
2019-02-21T13:36:10.979Z,21.45
2019-02-21T13:37:10.971Z,21.50
2019-02-21T13:38:10.959Z,21.50
2019-02-21T13:39:10.952Z,21.51
2019-02-21T13:40:10.938Z,21.45
2019-02-21T13:41:10.933Z,21.46
2019-02-21T13:42:11.044Z,21.46
2019-02-21T13:43:10.919Z,21.45
2019-02-21T13:44:10.897Z,21.50
2019-02-21T13:45:10.892Z,21.45
2019-02-21T13:46:10.872Z,21.50
2019-02-21T13:47:10.927Z,21.51
2019-02-21T13:48:10.912Z,21.43
2019-02-21T13:49:10.855Z,21.45
2019-02-21T13:50:10.839Z,21.48
2019-02-21T13:51:10.829Z,21.46
2019-02-21T13:52:10.810Z,21.46
2019-02-21T13:53:10.801Z,21.48
2019-02-21T13:54:10.788Z,21.37
2019-02-21T13:55:10.778Z,21.42
2019-02-21T13:56:10.778Z,21.51
2019-02-21T13:57:10.756Z,21.46
2019-02-21T13:58:10.746Z,21.51
2019-02-21T13:59:10.737Z,21.50
2019-02-21T14:00:10.729Z,21.48
2019-02-21T14:01:10.714Z,21.46
2019-02-21T14:02:10.703Z,21.51
2019-02-21T14:03:10.697Z,21.48
2019-02-21T14:04:10.689Z,21.42
2019-02-21T14:05:10.674Z,21.42
2019-02-21T14:06:10.669Z,21.42
2019-02-21T14:07:10.649Z,21.42
2019-02-21T14:08:10.640Z,21.40
2019-02-21T14:09:10.656Z,21.48
2019-02-21T14:10:10.632Z,21.39
2019-02-21T14:11:10.624Z,21.32
2019-02-21T14:12:10.593Z,21.45
2019-02-21T14:13:11.868Z,21.48
2019-02-21T14:14:10.574Z,21.37
2019-02-21T14:15:10.559Z,21.37
2019-02-21T14:16:10.555Z,21.40
2019-02-21T14:17:10.557Z,21.42
2019-02-21T14:18:10.571Z,21.37
2019-02-21T14:19:10.519Z,21.43
2019-02-21T14:20:10.513Z,21.46
2019-02-21T14:21:10.519Z,21.37
2019-02-21T14:22:10.488Z,21.39
2019-02-21T14:23:10.583Z,21.39
2019-02-21T14:24:10.463Z,21.39
2019-02-21T14:25:10.452Z,21.33
2019-02-21T14:26:10.440Z,21.39
2019-02-21T14:27:10.429Z,21.30
2019-02-21T14:28:10.431Z,21.45
2019-02-21T14:29:10.406Z,21.39
2019-02-21T14:30:10.405Z,21.40
2019-02-21T14:31:10.388Z,21.43
2019-02-21T14:32:10.375Z,21.36
2019-02-21T14:33:10.365Z,21.35
2019-02-21T14:34:10.365Z,21.32
2019-02-21T14:35:10.385Z,21.33
2019-02-21T14:36:15.955Z,21.40
2019-02-21T14:37:11.319Z,21.42
2019-02-21T14:38:10.357Z,21.33
2019-02-21T14:39:10.672Z,21.33
2019-02-21T14:40:10.298Z,21.35
2019-02-21T14:41:10.336Z,21.33
2019-02-21T14:42:10.298Z,21.32
2019-02-21T14:43:10.258Z,21.30
2019-02-21T14:44:10.242Z,21.35
2019-02-21T14:45:12.386Z,21.33
2019-02-21T14:46:10.219Z,21.42
2019-02-21T14:47:10.211Z,21.39
2019-02-21T14:48:10.203Z,21.33
2019-02-21T14:49:10.196Z,21.39
2019-02-21T14:50:10.179Z,21.30
2019-02-21T14:51:10.272Z,21.43
2019-02-21T14:52:10.149Z,21.39
2019-02-21T14:53:10.139Z,21.33
2019-02-21T14:54:10.133Z,21.35
2019-02-21T14:55:10.119Z,21.35
2019-02-21T14:56:10.142Z,21.30
2019-02-21T14:57:10.097Z,21.30
2019-02-21T14:58:10.085Z,21.40
2019-02-21T14:59:10.071Z,21.30
2019-02-21T15:00:10.068Z,21.33
2019-02-21T15:01:10.050Z,21.35
2019-02-21T15:02:10.053Z,21.33
2019-02-21T15:03:21.254Z,21.32
2019-02-21T15:04:11.033Z,21.33
2019-02-21T15:05:10.263Z,21.42
2019-02-21T15:06:10.007Z,21.48
2019-02-21T15:07:09.991Z,21.43
2019-02-21T15:08:09.988Z,21.50
2019-02-21T15:09:09.963Z,21.55
2019-02-21T15:10:09.950Z,21.51
2019-02-21T15:11:09.944Z,21.60
2019-02-21T15:12:11.807Z,21.64
2019-02-21T15:13:10.059Z,21.57
2019-02-21T15:14:09.908Z,21.67
2019-02-21T15:15:09.896Z,21.70
2019-02-21T15:16:09.885Z,21.75
2019-02-21T15:17:09.878Z,21.88
2019-02-21T15:18:11.280Z,21.91
2019-02-21T15:19:09.864Z,21.92
2019-02-21T15:20:09.841Z,21.96
2019-02-21T15:21:09.832Z,21.98
2019-02-21T15:22:09.819Z,22.00
2019-02-21T15:23:09.826Z,22.04
2019-02-21T15:24:09.802Z,22.17
2019-02-21T15:25:09.803Z,22.14
2019-02-21T15:26:09.776Z,22.18
2019-02-21T15:27:09.765Z,22.25
2019-02-21T15:28:09.756Z,22.18
2019-02-21T15:29:09.743Z,22.18
2019-02-21T15:30:09.741Z,22.30
2019-02-21T15:31:09.738Z,22.39
2019-02-21T15:32:11.302Z,22.45
2019-02-21T15:33:09.697Z,22.33
2019-02-21T15:34:12.107Z,22.53
2019-02-21T15:35:09.685Z,22.43
2019-02-21T15:36:09.673Z,22.50
2019-02-21T15:37:09.651Z,22.48
2019-02-21T15:38:19.533Z,22.60
2019-02-21T15:39:10.633Z,22.53
2019-02-21T15:40:09.627Z,22.60
2019-02-21T15:41:09.611Z,22.65
2019-02-21T15:42:09.609Z,22.59
2019-02-21T15:43:09.595Z,22.68
2019-02-21T15:44:09.590Z,22.69
2019-02-21T15:45:09.775Z,22.80
2019-02-21T15:46:09.557Z,22.76
2019-02-21T15:47:09.550Z,22.81
2019-02-21T15:48:09.536Z,22.84
2019-02-21T15:49:09.520Z,22.85
2019-02-21T15:50:09.517Z,22.91
2019-02-21T15:51:09.560Z,22.85
2019-02-21T15:52:09.515Z,22.90
2019-02-21T15:53:09.474Z,22.91
2019-02-21T15:54:09.509Z,22.91
2019-02-21T15:55:12.743Z,22.88
2019-02-21T15:56:09.455Z,22.98
2019-02-21T15:57:09.543Z,22.96
2019-02-21T15:58:09.420Z,22.96
2019-02-21T15:59:09.417Z,22.96
2019-02-21T16:00:09.406Z,22.93
2019-02-21T16:01:09.394Z,23.02
2019-02-21T16:02:09.390Z,23.00
2019-02-21T16:03:09.377Z,22.99
2019-02-21T16:04:09.361Z,23.02
2019-02-21T16:05:09.352Z,23.12
2019-02-21T16:06:09.360Z,23.06
2019-02-21T16:07:09.331Z,23.08
2019-02-21T16:08:09.312Z,23.08
2019-02-21T16:09:16.292Z,23.10
2019-02-21T16:10:10.285Z,23.03
2019-02-21T16:11:09.283Z,23.03
2019-02-21T16:12:09.361Z,23.08
2019-02-21T16:13:09.544Z,23.09
2019-02-21T16:14:09.253Z,23.15
2019-02-21T16:15:09.252Z,23.08
2019-02-21T16:16:09.248Z,23.06
2019-02-21T16:17:09.216Z,23.08
2019-02-21T16:18:09.202Z,23.10
2019-02-21T16:19:09.191Z,23.15
2019-02-21T16:20:09.183Z,23.12
2019-02-21T16:21:09.164Z,23.20
2019-02-21T16:22:09.156Z,23.18
2019-02-21T16:23:11.412Z,23.23
2019-02-21T16:24:09.138Z,23.28
2019-02-21T16:25:09.132Z,23.36
2019-02-21T16:26:09.131Z,23.34
2019-02-21T16:27:09.217Z,23.37
2019-02-21T16:28:09.092Z,23.27
2019-02-21T16:29:09.082Z,23.32
2019-02-21T16:30:09.082Z,23.31
2019-02-21T16:31:09.070Z,23.36
2019-02-21T16:32:09.055Z,23.32
2019-02-21T16:33:09.081Z,23.32
2019-02-21T16:34:09.347Z,23.37
2019-02-21T16:35:09.020Z,23.36
2019-02-21T16:36:09.068Z,23.25
2019-02-21T16:37:09.002Z,23.32
2019-02-21T16:38:08.983Z,23.36
2019-02-21T16:39:08.972Z,23.37
2019-02-21T16:40:08.958Z,23.39
2019-02-21T16:41:08.947Z,23.39
2019-02-21T16:42:08.944Z,23.37
2019-02-21T16:43:08.938Z,23.36
2019-02-21T16:44:08.926Z,23.40
2019-02-21T16:45:08.903Z,23.41
2019-02-21T16:46:08.900Z,23.37
2019-02-21T16:47:08.892Z,23.41
2019-02-21T16:48:08.894Z,23.41
2019-02-21T16:49:08.873Z,23.40
2019-02-21T16:50:08.859Z,23.39
2019-02-21T16:51:08.843Z,23.37
2019-02-21T16:52:08.896Z,23.40
2019-02-21T16:53:08.866Z,23.37
2019-02-21T16:54:08.810Z,23.46
2019-02-21T16:55:08.942Z,23.46
2019-02-21T16:56:08.782Z,23.41
2019-02-21T16:57:08.768Z,23.46
2019-02-21T16:58:08.770Z,23.43
2019-02-21T16:59:08.751Z,23.40
2019-02-21T17:00:08.735Z,23.41
2019-02-21T17:01:08.800Z,23.44
2019-02-21T17:02:08.712Z,23.47
2019-02-21T17:03:08.701Z,23.44
2019-02-21T17:04:08.691Z,23.48
2019-02-21T17:05:08.690Z,23.48
2019-02-21T17:06:08.676Z,23.44
2019-02-21T17:07:15.176Z,23.47
2019-02-21T17:08:09.663Z,23.56
2019-02-21T17:09:08.645Z,23.55
2019-02-21T17:10:08.625Z,23.54
2019-02-21T17:11:08.628Z,23.56
2019-02-21T17:12:08.608Z,23.50
2019-02-21T17:13:08.591Z,23.55
2019-02-21T17:14:08.582Z,23.54
2019-02-21T17:15:08.571Z,23.50
2019-02-21T17:16:08.569Z,23.56
2019-02-21T17:17:08.576Z,23.58
2019-02-21T17:18:08.546Z,23.59
2019-02-21T17:19:08.525Z,23.55
2019-02-21T17:20:08.515Z,23.56
2019-02-21T17:21:08.502Z,23.59
2019-02-21T17:22:08.500Z,23.58
2019-02-21T17:23:08.481Z,23.59
2019-02-21T17:24:08.472Z,23.62
2019-02-21T17:25:08.479Z,23.68
2019-02-21T17:26:08.449Z,23.62
2019-02-21T17:27:08.444Z,23.63
2019-02-21T17:28:08.436Z,23.66
2019-02-21T17:29:08.424Z,23.71
2019-02-21T17:30:08.416Z,23.71
2019-02-21T17:31:08.402Z,23.73
2019-02-21T17:32:08.386Z,23.69
2019-02-21T17:33:08.384Z,23.66
2019-02-21T17:34:08.379Z,23.71
2019-02-21T17:35:08.360Z,23.61
2019-02-21T17:36:08.356Z,23.50
2019-02-21T17:37:08.343Z,23.50
2019-02-21T17:38:08.370Z,23.51
2019-02-21T17:39:08.312Z,23.46
2019-02-21T17:40:08.299Z,23.39
2019-02-21T17:41:08.296Z,23.39
2019-02-21T17:42:08.276Z,23.41
2019-02-21T17:43:08.265Z,23.27
2019-02-21T17:44:08.255Z,23.32
2019-02-21T17:45:08.253Z,23.23
2019-02-21T17:46:08.232Z,23.12
2019-02-21T17:47:09.004Z,23.13
2019-02-21T17:48:08.211Z,23.12
2019-02-21T17:49:08.206Z,23.21
2019-02-21T17:50:08.206Z,23.12
2019-02-21T17:51:08.181Z,23.24
2019-02-21T17:52:08.173Z,23.20
2019-02-21T17:53:08.159Z,23.23
2019-02-21T17:54:08.169Z,23.17
2019-02-21T17:55:08.139Z,23.25
2019-02-21T17:56:08.132Z,23.23
2019-02-21T17:57:08.116Z,23.32
2019-02-21T17:58:08.109Z,23.40
2019-02-21T17:59:08.096Z,23.28
2019-02-21T18:00:08.084Z,23.31
2019-02-21T18:01:08.075Z,23.31
2019-02-21T18:02:08.069Z,23.31
2019-02-21T18:03:08.053Z,23.32
2019-02-21T18:04:08.046Z,23.41
2019-02-21T18:05:08.033Z,23.27
2019-02-21T18:06:08.033Z,23.34
2019-02-21T18:07:08.010Z,23.39
2019-02-21T18:08:08.007Z,23.40
2019-02-21T18:09:07.986Z,23.40
2019-02-21T18:10:07.977Z,23.44
2019-02-21T18:11:07.978Z,23.39
2019-02-21T18:12:07.953Z,23.37
2019-02-21T18:13:07.943Z,23.41
2019-02-21T18:14:07.933Z,23.40
2019-02-21T18:15:07.923Z,23.40
2019-02-21T18:16:07.912Z,23.36
2019-02-21T18:17:07.899Z,23.41
2019-02-21T18:18:07.972Z,23.40
2019-02-21T18:19:07.881Z,23.46
2019-02-21T18:20:07.867Z,23.41
2019-02-21T18:21:08.387Z,23.37
2019-02-21T18:22:07.877Z,23.36
2019-02-21T18:23:07.850Z,23.37
2019-02-21T18:24:07.826Z,23.41
2019-02-21T18:25:07.828Z,23.37
2019-02-21T18:26:07.802Z,23.40
2019-02-21T18:27:07.795Z,23.44
2019-02-21T18:28:07.780Z,23.41
2019-02-21T18:29:07.789Z,23.39
2019-02-21T18:30:07.766Z,23.40
2019-02-21T18:31:07.746Z,23.47
2019-02-21T18:32:07.737Z,23.37
2019-02-21T18:33:07.726Z,23.39
2019-02-21T18:34:07.720Z,23.39
2019-02-21T18:35:07.702Z,23.43
2019-02-21T18:36:07.700Z,23.37
2019-02-21T18:37:07.692Z,23.44
2019-02-21T18:38:07.673Z,23.36
2019-02-21T18:39:07.666Z,23.37
2019-02-21T18:40:16.857Z,23.27
2019-02-21T18:41:08.638Z,23.28
2019-02-21T18:42:07.635Z,23.25
2019-02-21T18:43:07.616Z,23.27
2019-02-21T18:44:07.623Z,23.34
2019-02-21T18:45:07.598Z,23.25
2019-02-21T18:46:07.592Z,23.34
2019-02-21T18:47:07.598Z,23.31
2019-02-21T18:48:07.563Z,23.28
2019-02-21T18:49:07.553Z,23.34
2019-02-21T18:50:07.674Z,23.34
2019-02-21T18:51:07.533Z,23.31
2019-02-21T18:52:07.535Z,23.34
2019-02-21T18:53:07.512Z,23.34
2019-02-21T18:54:07.497Z,23.28
2019-02-21T18:55:07.486Z,23.23
2019-02-21T18:56:07.475Z,23.20
2019-02-21T18:57:07.472Z,23.21
2019-02-21T18:58:07.473Z,23.08
2019-02-21T18:59:07.453Z,23.08
2019-02-21T19:00:07.432Z,23.12
2019-02-21T19:01:07.424Z,23.00
2019-02-21T19:02:07.410Z,22.99
2019-02-21T19:03:07.411Z,22.93
2019-02-21T19:04:07.388Z,22.88
2019-02-21T19:05:07.380Z,22.90
2019-02-21T19:06:07.367Z,22.84
2019-02-21T19:07:07.357Z,22.70
2019-02-21T19:08:07.350Z,22.76
2019-02-21T19:09:07.336Z,22.72
2019-02-21T19:10:07.328Z,22.59
2019-02-21T19:11:07.313Z,22.65
2019-02-21T19:12:07.304Z,22.55
2019-02-21T19:13:07.973Z,22.59
2019-02-21T19:14:07.285Z,22.59
2019-02-21T19:15:07.274Z,22.54
2019-02-21T19:16:07.267Z,22.59
2019-02-21T19:17:07.251Z,22.44
2019-02-21T19:18:07.240Z,22.45
2019-02-21T19:19:07.231Z,22.51
2019-02-21T19:20:07.218Z,22.51
2019-02-21T19:21:07.214Z,22.48
2019-02-21T19:22:07.197Z,22.41
2019-02-21T19:23:07.271Z,22.39
2019-02-21T19:24:07.175Z,22.41
2019-02-21T19:25:07.183Z,22.38
2019-02-21T19:26:07.153Z,22.36
2019-02-21T19:27:07.158Z,22.33
2019-02-21T19:28:07.131Z,22.30
2019-02-21T19:29:07.119Z,22.26
2019-02-21T19:30:07.110Z,22.29
2019-02-21T19:31:07.112Z,22.20
2019-02-21T19:32:07.091Z,22.29
2019-02-21T19:33:07.097Z,22.17
2019-02-21T19:34:07.068Z,22.15
2019-02-21T19:35:07.058Z,22.18
2019-02-21T19:36:07.044Z,22.22
2019-02-21T19:37:07.039Z,22.20
2019-02-21T19:38:10.527Z,22.13
2019-02-21T19:39:07.030Z,22.15
2019-02-21T19:40:07.003Z,22.11
2019-02-21T19:41:06.991Z,22.11
2019-02-21T19:42:06.986Z,22.07
2019-02-21T19:43:06.991Z,22.04
2019-02-21T19:44:09.082Z,22.06
2019-02-21T19:45:06.947Z,22.10
2019-02-21T19:46:06.941Z,22.00
2019-02-21T19:47:06.926Z,21.92
2019-02-21T19:48:06.925Z,22.04
2019-02-21T19:49:06.909Z,21.93
2019-02-21T19:50:06.967Z,21.91
2019-02-21T19:51:06.883Z,21.92
2019-02-21T19:52:06.875Z,21.85
2019-02-21T19:53:06.861Z,21.85
2019-02-21T19:54:06.856Z,21.72
2019-02-21T19:55:06.847Z,21.67
2019-02-21T19:56:06.841Z,21.69
2019-02-21T19:57:06.817Z,21.69
2019-02-21T19:58:06.818Z,21.67
2019-02-21T19:59:06.796Z,21.61
2019-02-21T20:00:06.787Z,21.61
2019-02-21T20:01:06.786Z,21.52
2019-02-21T20:02:06.773Z,21.57
2019-02-21T20:03:06.758Z,21.45
2019-02-21T20:04:06.745Z,21.48
2019-02-21T20:05:06.758Z,21.39
2019-02-21T20:06:06.720Z,21.35
2019-02-21T20:07:06.715Z,21.30
2019-02-21T20:08:08.951Z,21.33
2019-02-21T20:09:06.687Z,21.36
2019-02-21T20:10:06.677Z,21.42
2019-02-21T20:11:06.675Z,21.43
2019-02-21T20:12:06.658Z,21.52
2019-02-21T20:13:06.667Z,21.45
2019-02-21T20:14:06.631Z,21.51
2019-02-21T20:15:06.620Z,21.58
2019-02-21T20:16:06.609Z,21.62
2019-02-21T20:17:06.623Z,21.58
2019-02-21T20:18:06.588Z,21.66
2019-02-21T20:19:06.710Z,21.69
2019-02-21T20:20:06.566Z,21.66
2019-02-21T20:21:06.557Z,21.73
2019-02-21T20:22:06.548Z,21.76
2019-02-21T20:23:06.534Z,21.77
2019-02-21T20:24:06.534Z,21.82
2019-02-21T20:25:06.515Z,21.82
2019-02-21T20:26:06.498Z,21.93
2019-02-21T20:27:06.487Z,21.93
2019-02-21T20:28:06.477Z,21.92
2019-02-21T20:29:06.475Z,21.95
2019-02-21T20:30:06.467Z,21.93
2019-02-21T20:31:06.449Z,21.96
2019-02-21T20:32:06.435Z,21.96
2019-02-21T20:33:06.421Z,21.95
2019-02-21T20:34:06.415Z,21.93
2019-02-21T20:35:06.405Z,22.00
2019-02-21T20:36:06.392Z,22.04
2019-02-21T20:37:06.377Z,22.07
2019-02-21T20:38:06.365Z,22.11
2019-02-21T20:39:06.363Z,22.04
2019-02-21T20:40:06.349Z,21.99
2019-02-21T20:41:06.343Z,22.07
2019-02-21T20:42:06.326Z,22.07
2019-02-21T20:43:06.310Z,22.02
2019-02-21T20:44:06.298Z,22.02
2019-02-21T20:45:06.293Z,22.22
2019-02-21T20:46:06.290Z,22.08
2019-02-21T20:47:06.269Z,22.07
2019-02-21T20:48:06.257Z,22.20
2019-02-21T20:49:06.247Z,22.18
2019-02-21T20:50:06.240Z,22.17
2019-02-21T20:51:06.223Z,22.14
2019-02-21T20:52:06.216Z,22.14
2019-02-21T20:53:06.214Z,22.18
2019-02-21T20:54:06.191Z,22.15
2019-02-21T20:55:06.180Z,22.14
2019-02-21T20:56:06.364Z,22.18
2019-02-21T20:57:06.169Z,22.18
2019-02-21T20:58:06.156Z,22.15
2019-02-21T20:59:06.148Z,22.17
2019-02-21T21:00:06.142Z,22.17
2019-02-21T21:01:06.111Z,22.22
2019-02-21T21:02:06.107Z,22.22
2019-02-21T21:03:06.092Z,22.18
2019-02-21T21:04:06.077Z,22.18
2019-02-21T21:05:06.125Z,22.11
2019-02-21T21:06:06.058Z,22.14
2019-02-21T21:07:06.043Z,22.06
2019-02-21T21:08:06.038Z,22.06
2019-02-21T21:09:06.044Z,22.10
2019-02-21T21:10:06.017Z,22.10
2019-02-21T21:11:06.002Z,22.07
2019-02-21T21:12:05.989Z,22.06
2019-02-21T21:13:05.977Z,22.06
2019-02-21T21:14:05.971Z,21.93
2019-02-21T21:15:05.957Z,21.99
2019-02-21T21:16:05.945Z,21.98
2019-02-21T21:17:05.933Z,21.95
2019-02-21T21:18:05.931Z,22.00
2019-02-21T21:19:05.914Z,21.98
2019-02-21T21:20:15.872Z,21.98
2019-02-21T21:21:07.075Z,21.96
2019-02-21T21:22:05.880Z,21.99
2019-02-21T21:23:05.868Z,21.99
2019-02-21T21:24:05.912Z,21.95
2019-02-21T21:25:05.842Z,21.96
2019-02-21T21:26:05.832Z,21.95
2019-02-21T21:27:05.824Z,21.98
2019-02-21T21:28:05.817Z,21.93
2019-02-21T21:29:05.805Z,22.02
2019-02-21T21:30:05.788Z,21.98
2019-02-21T21:31:05.781Z,21.95
2019-02-21T21:32:05.772Z,21.92
2019-02-21T21:33:05.761Z,21.96
2019-02-21T21:34:05.750Z,21.93
2019-02-21T21:35:05.743Z,21.89
2019-02-21T21:36:05.733Z,21.96
2019-02-21T21:37:05.711Z,21.92
2019-02-21T21:38:05.702Z,21.91
2019-02-21T21:39:05.696Z,21.92
2019-02-21T21:40:05.681Z,21.95
2019-02-21T21:41:05.669Z,21.98
2019-02-21T21:42:08.194Z,21.82
2019-02-21T21:43:05.647Z,21.88
2019-02-21T21:44:05.636Z,21.88
2019-02-21T21:45:05.624Z,21.77
2019-02-21T21:46:05.619Z,21.92
2019-02-21T21:47:05.607Z,21.85
2019-02-21T21:48:05.597Z,21.83
2019-02-21T21:49:05.582Z,21.85
2019-02-21T21:50:05.569Z,21.80
2019-02-21T21:51:05.559Z,21.75
2019-02-21T21:52:05.548Z,21.89
2019-02-21T21:53:05.533Z,21.88
2019-02-21T21:54:05.528Z,21.82
2019-02-21T21:55:05.520Z,21.91
2019-02-21T21:56:05.504Z,21.91
2019-02-21T21:57:05.494Z,21.83
2019-02-21T21:58:05.483Z,21.88
2019-02-21T21:59:05.480Z,21.89
2019-02-21T22:00:05.459Z,21.85
2019-02-21T22:01:05.500Z,21.77
2019-02-21T22:02:05.446Z,21.88
2019-02-21T22:03:05.434Z,21.79
2019-02-21T22:04:05.417Z,21.88
2019-02-21T22:05:05.422Z,21.76
2019-02-21T22:06:05.390Z,21.79
2019-02-21T22:07:05.383Z,21.85
2019-02-21T22:08:05.758Z,21.76
2019-02-21T22:09:05.357Z,21.95
2019-02-21T22:10:05.350Z,21.93
2019-02-21T22:11:05.352Z,21.95
2019-02-21T22:12:05.323Z,22.00
2019-02-21T22:13:05.316Z,22.02
2019-02-21T22:14:05.311Z,22.08
2019-02-21T22:15:05.335Z,22.25
2019-02-21T22:16:05.429Z,22.33
2019-02-21T22:17:05.288Z,22.45
2019-02-21T22:18:05.264Z,22.39
2019-02-21T22:19:05.248Z,22.54
2019-02-21T22:20:05.248Z,22.62
2019-02-21T22:21:05.228Z,22.68
2019-02-21T22:22:05.216Z,22.66
2019-02-21T22:23:05.209Z,22.73
2019-02-21T22:24:05.192Z,22.76
2019-02-21T22:25:05.183Z,22.83
2019-02-21T22:26:05.169Z,22.90
2019-02-21T22:27:05.163Z,22.98
2019-02-21T22:28:05.159Z,22.99
2019-02-21T22:29:05.207Z,23.06
2019-02-21T22:30:05.125Z,23.09
2019-02-21T22:31:05.124Z,23.12
2019-02-21T22:32:05.110Z,23.20
2019-02-21T22:33:05.256Z,23.18
2019-02-21T22:34:05.110Z,23.18
2019-02-21T22:35:05.080Z,23.34
2019-02-21T22:36:05.068Z,23.34
2019-02-21T22:37:05.054Z,23.40
2019-02-21T22:38:05.051Z,23.39
2019-02-21T22:39:15.478Z,23.41
2019-02-21T22:40:06.023Z,23.46
2019-02-21T22:41:05.015Z,23.56
2019-02-21T22:42:05.009Z,23.48
2019-02-21T22:43:04.990Z,23.56
2019-02-21T22:44:04.982Z,23.59
2019-02-21T22:45:05.590Z,23.61
2019-02-21T22:46:04.953Z,23.66
2019-02-21T22:47:04.951Z,23.71
2019-02-21T22:48:04.939Z,23.74
2019-02-21T22:49:04.930Z,23.86
2019-02-21T22:50:04.909Z,23.77
2019-02-21T22:51:04.899Z,23.83
2019-02-21T22:52:04.888Z,23.83
2019-02-21T22:53:04.877Z,23.86
2019-02-21T22:54:04.860Z,23.95
2019-02-21T22:55:09.926Z,23.91
2019-02-21T22:56:05.837Z,23.95
2019-02-21T22:57:04.833Z,23.93
2019-02-21T22:58:04.819Z,23.95
2019-02-21T22:59:04.815Z,23.96
2019-02-21T23:00:04.802Z,24.08
2019-02-21T23:01:04.809Z,24.03
2019-02-21T23:02:04.775Z,24.10
2019-02-21T23:03:04.763Z,24.08
2019-02-21T23:04:04.755Z,24.08
2019-02-21T23:05:04.749Z,24.11
2019-02-21T23:06:04.741Z,24.13
2019-02-21T23:07:04.721Z,24.13
2019-02-21T23:08:04.710Z,24.16
2019-02-21T23:09:04.698Z,24.24
2019-02-21T23:10:04.698Z,24.21
2019-02-21T23:11:04.678Z,24.30
2019-02-21T23:12:04.673Z,24.33
2019-02-21T23:13:04.656Z,24.24
2019-02-21T23:14:04.645Z,24.26
2019-02-21T23:15:04.640Z,24.30
2019-02-21T23:16:04.638Z,24.24
2019-02-21T23:17:04.617Z,24.33
2019-02-21T23:18:04.617Z,24.33
2019-02-21T23:19:04.591Z,24.28
2019-02-21T23:20:04.583Z,24.28
2019-02-21T23:21:04.570Z,24.35
2019-02-21T23:22:04.572Z,24.30
2019-02-21T23:23:04.558Z,24.32
2019-02-21T23:24:04.541Z,24.35
2019-02-21T23:25:04.596Z,24.36
2019-02-21T23:26:04.522Z,24.36
2019-02-21T23:27:04.511Z,24.39
2019-02-21T23:28:04.501Z,24.39
2019-02-21T23:29:04.493Z,24.42
2019-02-21T23:30:04.474Z,24.40
2019-02-21T23:31:04.462Z,24.43
2019-02-21T23:32:04.458Z,24.53
2019-02-21T23:33:04.440Z,24.50
2019-02-21T23:34:04.428Z,24.54
2019-02-21T23:35:04.425Z,24.47
2019-02-21T23:36:05.179Z,24.48
2019-02-21T23:37:04.397Z,24.60
2019-02-21T23:38:04.387Z,24.51
2019-02-21T23:39:04.387Z,24.53
2019-02-21T23:40:04.371Z,24.66
2019-02-21T23:41:04.362Z,24.61
2019-02-21T23:42:04.341Z,24.61
2019-02-21T23:43:04.335Z,24.63
2019-02-21T23:44:04.321Z,24.58
2019-02-21T23:45:04.311Z,24.65
2019-02-21T23:46:04.300Z,24.63
2019-02-21T23:47:04.293Z,24.58
2019-02-21T23:48:04.277Z,24.77
2019-02-21T23:49:04.272Z,24.76
2019-02-21T23:50:04.256Z,24.73
2019-02-21T23:51:04.250Z,24.80
2019-02-21T23:52:04.237Z,24.70
2019-02-21T23:53:04.230Z,24.74
2019-02-21T23:54:04.212Z,24.69
2019-02-21T23:55:04.209Z,24.74
2019-02-21T23:56:04.198Z,24.78
2019-02-21T23:57:04.188Z,24.80
2019-02-21T23:58:04.179Z,24.85
2019-02-21T23:59:04.166Z,24.78
